DLH6EF VRMM-EDDB
Flight info
| Callsign | DLH6EF |
|---|---|
| Flight time | N/A |
| Altitude | 38000 |
| Route | ELBET1B ELBET L894 KITAL P570 EMURU N563 SODEX/N0509F340 N563 BOSEV/N0494F380 N563 ITKEV/N0487F400 N563 ALPOB L768 OBMON/N0513F320 L934 TOKMA/N0487F400 L602 RALKA G795 TASMI L602 ALPET L718 KABAN UL718 ESOTA DCT EKMIN UL718 ASPUL DCT ELNEM DCT ATRIV DCT ERVAK UL718 INB/N0496F280 L746 GIPDA/N0489F400 DCT EVGEG L746 ODERO T86 MATEL T746 ARGES DCT TOBAG DCT EKSUN DCT RUSAG DCT IXORI DCT BADOR DCT IBLIZ DCT NEPAK DCT LOLKA/N0498F280 T710 VAGON T205 NUKRO NUKRO1R |
| Aircraft | A359/H-SDE2E3GHIJ3J4J5LM1ORWXY/LB1D1 |
Departure
| Time | N/A |
|---|---|
| Airport | Velana International Airport (VRMM) |
Arrival
| Time | 2026-05-05 19:40 |
|---|---|
| Airport | Berlin Brandenburg Airport (EDDB) |
| Time | Latitude | Longitude | Altitude | Speed | Heading |
|---|---|---|---|---|---|
| 2026-05-05 16:56 | 41.01089 | 35.71450 | 39991 ft | 491 kts | 302° |
| 2026-05-05 16:56 | 41.02929 | 35.67650 | 39990 ft | 491 kts | 302° |
| 2026-05-05 16:56 | 41.06614 | 35.60024 | 39982 ft | 492 kts | 302° |
| 2026-05-05 16:57 | 41.10302 | 35.52363 | 39988 ft | 493 kts | 302° |
| 2026-05-05 16:57 | 41.13983 | 35.44700 | 39993 ft | 492 kts | 302° |
| 2026-05-05 16:58 | 41.17632 | 35.37088 | 39999 ft | 492 kts | 302° |
| 2026-05-05 16:58 | 41.21299 | 35.29418 | 39999 ft | 491 kts | 302° |
| 2026-05-05 16:59 | 41.24958 | 35.21745 | 39999 ft | 492 kts | 302° |
| 2026-05-05 16:59 | 41.28617 | 35.14056 | 39999 ft | 492 kts | 302° |
| 2026-05-05 17:00 | 41.32265 | 35.06366 | 40001 ft | 492 kts | 302° |
| 2026-05-05 17:00 | 41.35908 | 34.98670 | 40008 ft | 491 kts | 302° |
| 2026-05-05 17:01 | 41.39534 | 34.90990 | 40007 ft | 489 kts | 302° |
| 2026-05-05 17:01 | 41.43158 | 34.83296 | 40009 ft | 490 kts | 302° |
| 2026-05-05 17:02 | 41.46776 | 34.75593 | 40015 ft | 490 kts | 302° |
| 2026-05-05 17:02 | 41.50391 | 34.67880 | 40015 ft | 491 kts | 302° |
| 2026-05-05 17:03 | 41.54000 | 34.60158 | 40021 ft | 491 kts | 302° |
| 2026-05-05 17:03 | 41.57607 | 34.52423 | 40024 ft | 490 kts | 302° |
| 2026-05-05 17:04 | 41.61204 | 34.44692 | 40028 ft | 490 kts | 302° |
| 2026-05-05 17:04 | 41.64790 | 34.36949 | 40027 ft | 490 kts | 302° |
| 2026-05-05 17:05 | 41.68373 | 34.29192 | 40034 ft | 490 kts | 302° |
| 2026-05-05 17:05 | 41.71944 | 34.21448 | 40038 ft | 489 kts | 302° |
| 2026-05-05 17:06 | 41.75507 | 34.13702 | 40043 ft | 488 kts | 302° |
| 2026-05-05 17:06 | 41.79067 | 34.05942 | 40043 ft | 488 kts | 302° |
| 2026-05-05 17:07 | 41.82612 | 33.98195 | 40045 ft | 488 kts | 302° |
| 2026-05-05 17:07 | 41.86159 | 33.90426 | 40049 ft | 488 kts | 302° |
| 2026-05-05 17:08 | 41.89694 | 33.82659 | 40047 ft | 488 kts | 302° |
| 2026-05-05 17:08 | 41.93226 | 33.74869 | 40049 ft | 488 kts | 302° |
| 2026-05-05 17:09 | 41.95897 | 33.66503 | 40053 ft | 489 kts | 288° |
| 2026-05-05 17:09 | 41.97712 | 33.57694 | 40051 ft | 490 kts | 285° |
| 2026-05-05 17:10 | 41.99391 | 33.48826 | 40047 ft | 490 kts | 285° |
| 2026-05-05 17:10 | 42.01060 | 33.39953 | 40048 ft | 490 kts | 285° |
| 2026-05-05 17:11 | 42.02730 | 33.31139 | 40047 ft | 489 kts | 286° |
| 2026-05-05 17:11 | 42.04413 | 33.22268 | 40048 ft | 489 kts | 285° |
| 2026-05-05 17:12 | 42.06098 | 33.13349 | 40043 ft | 489 kts | 286° |
| 2026-05-05 17:12 | 42.07768 | 33.04533 | 40046 ft | 489 kts | 287° |
| 2026-05-05 17:13 | 42.09568 | 32.95719 | 40045 ft | 489 kts | 287° |
| 2026-05-05 17:13 | 42.11403 | 32.86894 | 40043 ft | 489 kts | 287° |
| 2026-05-05 17:14 | 42.13213 | 32.78068 | 40041 ft | 489 kts | 287° |
| 2026-05-05 17:14 | 42.15005 | 32.69220 | 40043 ft | 489 kts | 287° |
| 2026-05-05 17:15 | 42.16784 | 32.60384 | 40044 ft | 489 kts | 287° |
| 2026-05-05 17:15 | 42.18561 | 32.51527 | 40045 ft | 489 kts | 287° |
| 2026-05-05 17:16 | 42.20322 | 32.42670 | 40044 ft | 489 kts | 287° |
| 2026-05-05 17:16 | 42.22079 | 32.33800 | 40043 ft | 489 kts | 287° |
| 2026-05-05 17:17 | 42.23829 | 32.24935 | 40042 ft | 489 kts | 287° |
| 2026-05-05 17:17 | 42.25578 | 32.16066 | 40040 ft | 489 kts | 287° |
| 2026-05-05 17:18 | 42.27321 | 32.07181 | 40044 ft | 489 kts | 287° |
| 2026-05-05 17:18 | 42.29052 | 31.98304 | 40043 ft | 489 kts | 287° |
| 2026-05-05 17:19 | 42.30779 | 31.89413 | 40044 ft | 489 kts | 287° |
| 2026-05-05 17:19 | 42.32499 | 31.80525 | 40042 ft | 489 kts | 287° |
| 2026-05-05 17:20 | 42.34200 | 31.71692 | 40044 ft | 488 kts | 286° |
| 2026-05-05 17:20 | 42.35904 | 31.62806 | 40045 ft | 488 kts | 286° |
| 2026-05-05 17:21 | 42.37599 | 31.53925 | 40042 ft | 488 kts | 286° |
| 2026-05-05 17:22 | 42.40129 | 31.40597 | 40049 ft | 487 kts | 286° |
| 2026-05-05 17:22 | 42.41802 | 31.31731 | 40048 ft | 487 kts | 286° |
| 2026-05-05 17:23 | 42.43470 | 31.22849 | 40046 ft | 487 kts | 286° |
| 2026-05-05 17:23 | 42.45131 | 31.13962 | 40047 ft | 486 kts | 286° |
| 2026-05-05 17:24 | 42.46785 | 31.05098 | 40049 ft | 485 kts | 286° |
| 2026-05-05 17:24 | 42.48421 | 30.96251 | 40050 ft | 485 kts | 285° |
| 2026-05-05 17:25 | 42.50052 | 30.87378 | 40045 ft | 485 kts | 285° |
| 2026-05-05 17:25 | 42.51676 | 30.78506 | 40050 ft | 484 kts | 285° |
| 2026-05-05 17:26 | 42.53817 | 30.69901 | 40058 ft | 481 kts | 298° |
| 2026-05-05 17:26 | 42.56959 | 30.61907 | 40056 ft | 480 kts | 301° |
| 2026-05-05 17:27 | 42.60313 | 30.54090 | 40052 ft | 480 kts | 302° |
| 2026-05-05 17:27 | 42.63680 | 30.46267 | 40060 ft | 479 kts | 302° |
| 2026-05-05 17:28 | 42.66988 | 30.38486 | 40058 ft | 479 kts | 301° |
| 2026-05-05 17:28 | 42.70299 | 30.30631 | 40063 ft | 479 kts | 301° |
| 2026-05-05 17:29 | 42.73599 | 30.22775 | 40062 ft | 478 kts | 301° |
| 2026-05-05 17:29 | 42.76898 | 30.14903 | 40065 ft | 478 kts | 301° |
| 2026-05-05 17:30 | 42.80189 | 30.07031 | 40067 ft | 478 kts | 301° |
| 2026-05-05 17:30 | 42.83468 | 29.99166 | 40063 ft | 478 kts | 301° |
| 2026-05-05 17:31 | 42.86742 | 29.91293 | 40066 ft | 477 kts | 301° |
| 2026-05-05 17:31 | 42.90010 | 29.83411 | 40070 ft | 477 kts | 301° |
| 2026-05-05 17:32 | 42.93274 | 29.75520 | 40067 ft | 478 kts | 301° |
| 2026-05-05 17:32 | 42.96540 | 29.67600 | 40069 ft | 478 kts | 301° |
| 2026-05-05 17:33 | 42.99796 | 29.59685 | 40072 ft | 478 kts | 301° |
| 2026-05-05 17:33 | 43.02496 | 29.53103 | 40072 ft | 478 kts | 301° |
| 2026-05-05 17:34 | 43.05738 | 29.45181 | 40069 ft | 478 kts | 301° |
| 2026-05-05 17:34 | 43.08975 | 29.37249 | 40069 ft | 478 kts | 301° |
| 2026-05-05 17:35 | 43.12212 | 29.29296 | 40072 ft | 478 kts | 301° |
| 2026-05-05 17:35 | 43.15438 | 29.21350 | 40072 ft | 478 kts | 301° |
| 2026-05-05 17:36 | 43.18658 | 29.13392 | 40072 ft | 477 kts | 301° |
| 2026-05-05 17:36 | 43.21870 | 29.05435 | 40072 ft | 477 kts | 300° |
| 2026-05-05 17:37 | 43.25073 | 28.97477 | 40069 ft | 477 kts | 300° |
| 2026-05-05 17:37 | 43.28271 | 28.89510 | 40062 ft | 477 kts | 300° |
| 2026-05-05 17:38 | 43.31462 | 28.81540 | 40072 ft | 476 kts | 300° |
| 2026-05-05 17:38 | 43.34648 | 28.73559 | 40073 ft | 476 kts | 300° |
| 2026-05-05 17:39 | 43.37821 | 28.65587 | 40071 ft | 476 kts | 300° |
| 2026-05-05 17:39 | 43.40992 | 28.57599 | 40084 ft | 476 kts | 300° |
| 2026-05-05 17:40 | 43.44151 | 28.49619 | 40071 ft | 475 kts | 300° |
| 2026-05-05 17:40 | 43.47306 | 28.41625 | 40069 ft | 475 kts | 300° |
| 2026-05-05 17:41 | 43.50454 | 28.33629 | 40063 ft | 475 kts | 300° |
| 2026-05-05 17:41 | 43.53575 | 28.25677 | 40056 ft | 474 kts | 300° |
| 2026-05-05 17:42 | 43.56729 | 28.17618 | 40061 ft | 474 kts | 300° |
| 2026-05-05 17:42 | 43.59833 | 28.09667 | 40054 ft | 475 kts | 300° |
| 2026-05-05 17:43 | 43.62962 | 28.01628 | 40048 ft | 475 kts | 300° |
| 2026-05-05 17:43 | 43.66079 | 27.93596 | 40049 ft | 474 kts | 300° |
| 2026-05-05 17:44 | 43.69185 | 27.85571 | 40047 ft | 474 kts | 300° |
| 2026-05-05 17:44 | 43.72289 | 27.77527 | 40045 ft | 474 kts | 299° |
| 2026-05-05 17:45 | 43.75391 | 27.69466 | 40038 ft | 474 kts | 299° |
| 2026-05-05 17:45 | 43.78478 | 27.61422 | 40035 ft | 474 kts | 299° |
| 2026-05-05 17:46 | 43.81562 | 27.53360 | 40030 ft | 474 kts | 299° |
| 2026-05-05 17:46 | 43.84641 | 27.45289 | 40012 ft | 474 kts | 299° |
| 2026-05-05 17:47 | 43.87714 | 27.37214 | 40026 ft | 474 kts | 299° |
| 2026-05-05 17:47 | 43.90782 | 27.29124 | 40021 ft | 474 kts | 299° |
| 2026-05-05 17:48 | 43.93820 | 27.21091 | 40015 ft | 474 kts | 299° |
| 2026-05-05 17:48 | 43.96877 | 27.12986 | 40010 ft | 473 kts | 299° |
| 2026-05-05 17:49 | 43.99917 | 27.04901 | 40009 ft | 472 kts | 299° |
| 2026-05-05 17:49 | 44.02953 | 26.96804 | 40010 ft | 472 kts | 299° |
| 2026-05-05 17:50 | 44.06340 | 26.89004 | 40009 ft | 470 kts | 309° |
| 2026-05-05 17:50 | 44.11082 | 26.82829 | 40007 ft | 467 kts | 327° |
| 2026-05-05 17:51 | 44.16896 | 26.78867 | 40007 ft | 468 kts | 340° |
| 2026-05-05 17:51 | 44.23119 | 26.76157 | 40003 ft | 470 kts | 344° |
| 2026-05-05 17:52 | 44.29414 | 26.73690 | 40001 ft | 470 kts | 344° |
| 2026-05-05 17:52 | 44.35684 | 26.71119 | 40008 ft | 470 kts | 341° |
| 2026-05-05 17:53 | 44.41628 | 26.67336 | 40008 ft | 470 kts | 333° |
| 2026-05-05 17:53 | 44.47394 | 26.62995 | 40000 ft | 471 kts | 332° |
| 2026-05-05 17:54 | 44.53132 | 26.58574 | 40007 ft | 471 kts | 332° |
| 2026-05-05 17:54 | 44.58880 | 26.54151 | 39992 ft | 471 kts | 332° |
| 2026-05-05 17:55 | 44.64626 | 26.49739 | 40003 ft | 471 kts | 332° |
| 2026-05-05 17:55 | 44.70372 | 26.45323 | 40002 ft | 471 kts | 332° |
| 2026-05-05 17:56 | 44.76121 | 26.40895 | 39997 ft | 471 kts | 332° |
| 2026-05-05 17:56 | 44.81870 | 26.36456 | 39992 ft | 471 kts | 332° |
| 2026-05-05 17:57 | 44.87613 | 26.32007 | 39992 ft | 471 kts | 331° |
| 2026-05-05 17:57 | 44.92849 | 26.26500 | 39996 ft | 472 kts | 315° |
| 2026-05-05 17:58 | 44.97043 | 26.19438 | 39991 ft | 473 kts | 309° |
| 2026-05-05 17:58 | 45.01028 | 26.12022 | 39992 ft | 474 kts | 308° |
| 2026-05-05 17:59 | 45.04977 | 26.04565 | 39998 ft | 473 kts | 308° |
| 2026-05-05 17:59 | 45.08923 | 25.97141 | 40004 ft | 472 kts | 308° |
| 2026-05-05 18:00 | 45.12884 | 25.89706 | 40008 ft | 472 kts | 308° |
| 2026-05-05 18:00 | 45.16831 | 25.82284 | 40011 ft | 472 kts | 308° |
| 2026-05-05 18:01 | 45.20777 | 25.74847 | 40019 ft | 472 kts | 308° |
| 2026-05-05 18:01 | 45.24718 | 25.67396 | 40018 ft | 472 kts | 308° |
| 2026-05-05 18:02 | 45.28654 | 25.59935 | 40022 ft | 473 kts | 308° |
| 2026-05-05 18:02 | 45.32591 | 25.52452 | 40020 ft | 473 kts | 308° |
| 2026-05-05 18:03 | 45.36524 | 25.44957 | 40022 ft | 472 kts | 308° |
| 2026-05-05 18:03 | 45.40441 | 25.37475 | 40022 ft | 472 kts | 308° |
| 2026-05-05 18:04 | 45.44357 | 25.29973 | 40020 ft | 472 kts | 308° |
| 2026-05-05 18:04 | 45.48265 | 25.22466 | 40019 ft | 471 kts | 308° |
| 2026-05-05 18:05 | 45.52163 | 25.14960 | 40017 ft | 471 kts | 308° |
| 2026-05-05 18:05 | 45.56052 | 25.07452 | 40013 ft | 471 kts | 308° |
| 2026-05-05 18:06 | 45.59940 | 24.99923 | 40007 ft | 471 kts | 308° |
| 2026-05-05 18:06 | 45.63819 | 24.92393 | 39999 ft | 470 kts | 307° |
| 2026-05-05 18:07 | 45.67687 | 24.84866 | 39993 ft | 470 kts | 307° |
| 2026-05-05 18:07 | 45.71530 | 24.77365 | 39997 ft | 470 kts | 307° |
| 2026-05-05 18:08 | 45.75391 | 24.69811 | 39981 ft | 471 kts | 307° |
| 2026-05-05 18:08 | 45.79279 | 24.62183 | 39974 ft | 470 kts | 307° |
| 2026-05-05 18:09 | 45.83097 | 24.54670 | 39973 ft | 470 kts | 307° |
| 2026-05-05 18:09 | 45.86944 | 24.47083 | 39968 ft | 470 kts | 307° |
| 2026-05-05 18:10 | 45.90778 | 24.39499 | 39964 ft | 470 kts | 307° |
| 2026-05-05 18:10 | 45.94613 | 24.31894 | 39961 ft | 470 kts | 307° |
| 2026-05-05 18:11 | 45.98763 | 24.24684 | 39965 ft | 468 kts | 316° |
| 2026-05-05 18:11 | 46.03450 | 24.18190 | 39964 ft | 468 kts | 317° |
| 2026-05-05 18:12 | 46.08211 | 24.11787 | 39957 ft | 469 kts | 317° |
| 2026-05-05 18:12 | 46.12988 | 24.05367 | 39952 ft | 469 kts | 317° |
| 2026-05-05 18:13 | 46.17745 | 23.98937 | 39954 ft | 469 kts | 317° |
| 2026-05-05 18:13 | 46.22501 | 23.92479 | 39952 ft | 469 kts | 317° |
| 2026-05-05 18:14 | 46.27255 | 23.86005 | 39951 ft | 469 kts | 317° |
| 2026-05-05 18:14 | 46.32002 | 23.79525 | 39951 ft | 469 kts | 317° |
| 2026-05-05 18:15 | 46.36731 | 23.73054 | 39959 ft | 468 kts | 317° |
| 2026-05-05 18:15 | 46.41433 | 23.66604 | 39957 ft | 468 kts | 317° |
| 2026-05-05 18:16 | 46.46186 | 23.60068 | 39964 ft | 468 kts | 317° |
| 2026-05-05 18:16 | 46.50876 | 23.53603 | 39960 ft | 468 kts | 317° |
| 2026-05-05 18:17 | 46.55595 | 23.47083 | 39972 ft | 468 kts | 317° |
| 2026-05-05 18:17 | 46.60307 | 23.40553 | 39985 ft | 468 kts | 316° |
| 2026-05-05 18:18 | 46.65016 | 23.34011 | 39986 ft | 468 kts | 316° |
| 2026-05-05 18:18 | 46.69730 | 23.27448 | 39981 ft | 468 kts | 316° |
| 2026-05-05 18:19 | 46.74435 | 23.20944 | 39982 ft | 468 kts | 318° |
| 2026-05-05 18:19 | 46.79301 | 23.14627 | 39979 ft | 468 kts | 319° |
| 2026-05-05 18:20 | 46.84193 | 23.08340 | 39983 ft | 468 kts | 319° |
| 2026-05-05 18:20 | 46.89061 | 23.02011 | 39980 ft | 468 kts | 318° |
| 2026-05-05 18:21 | 46.93092 | 22.96726 | 39972 ft | 468 kts | 318° |
| 2026-05-05 18:21 | 46.97934 | 22.90352 | 39972 ft | 468 kts | 318° |
| 2026-05-05 18:22 | 47.02787 | 22.83948 | 39962 ft | 469 kts | 318° |
| 2026-05-05 18:22 | 47.07636 | 22.77536 | 39960 ft | 469 kts | 318° |
| 2026-05-05 18:23 | 47.12474 | 22.71123 | 39952 ft | 469 kts | 317° |
| 2026-05-05 18:23 | 47.17324 | 22.64678 | 39948 ft | 470 kts | 317° |
| 2026-05-05 18:24 | 47.22132 | 22.58272 | 39949 ft | 470 kts | 317° |
| 2026-05-05 18:24 | 47.26970 | 22.51808 | 39942 ft | 470 kts | 317° |
| 2026-05-05 18:25 | 47.31806 | 22.45333 | 39938 ft | 470 kts | 317° |
| 2026-05-05 18:25 | 47.36638 | 22.38844 | 39931 ft | 470 kts | 317° |
| 2026-05-05 18:26 | 47.41467 | 22.32342 | 39924 ft | 470 kts | 317° |
| 2026-05-05 18:26 | 47.46292 | 22.25830 | 39924 ft | 470 kts | 317° |
| 2026-05-05 18:27 | 47.51120 | 22.19298 | 39918 ft | 470 kts | 317° |
| 2026-05-05 18:27 | 47.55940 | 22.12749 | 39918 ft | 471 kts | 316° |
| 2026-05-05 18:28 | 47.62460 | 22.01881 | 39917 ft | 470 kts | 310° |
| 2026-05-05 18:28 | 47.66655 | 21.94451 | 39914 ft | 470 kts | 309° |
| 2026-05-05 18:29 | 47.70841 | 21.86996 | 39914 ft | 470 kts | 309° |
| 2026-05-05 18:29 | 47.75031 | 21.79527 | 39910 ft | 471 kts | 309° |
| 2026-05-05 18:30 | 47.79226 | 21.72040 | 39907 ft | 471 kts | 309° |
| 2026-05-05 18:30 | 47.83415 | 21.64547 | 39911 ft | 471 kts | 309° |
| 2026-05-05 18:31 | 47.87599 | 21.57042 | 39911 ft | 471 kts | 309° |
| 2026-05-05 18:31 | 47.91782 | 21.49515 | 39903 ft | 472 kts | 309° |
| 2026-05-05 18:32 | 47.95969 | 21.41961 | 39903 ft | 472 kts | 309° |
| 2026-05-05 18:32 | 48.00145 | 21.34404 | 39901 ft | 472 kts | 309° |
| 2026-05-05 18:33 | 48.04315 | 21.26839 | 39900 ft | 472 kts | 309° |
| 2026-05-05 18:33 | 48.08480 | 21.19261 | 39899 ft | 472 kts | 308° |
| 2026-05-05 18:34 | 48.12638 | 21.11672 | 39903 ft | 472 kts | 308° |
| 2026-05-05 18:34 | 48.16798 | 21.04061 | 39902 ft | 472 kts | 308° |
| 2026-05-05 18:35 | 48.20947 | 20.96447 | 39900 ft | 472 kts | 308° |
| 2026-05-05 18:35 | 48.25098 | 20.88809 | 39900 ft | 472 kts | 308° |
| 2026-05-05 18:36 | 48.29286 | 20.81228 | 39902 ft | 473 kts | 312° |
| 2026-05-05 18:36 | 48.34384 | 20.75017 | 39905 ft | 474 kts | 328° |
| 2026-05-05 18:37 | 48.40109 | 20.70094 | 39908 ft | 474 kts | 330° |
| 2026-05-05 18:37 | 48.45914 | 20.65359 | 39908 ft | 475 kts | 330° |
| 2026-05-05 18:38 | 48.51730 | 20.60613 | 39913 ft | 475 kts | 330° |
| 2026-05-05 18:38 | 48.57528 | 20.55836 | 39917 ft | 475 kts | 329° |
| 2026-05-05 18:39 | 48.63334 | 20.51082 | 39921 ft | 475 kts | 332° |
| 2026-05-05 18:39 | 48.69322 | 20.46895 | 39915 ft | 474 kts | 334° |
| 2026-05-05 18:40 | 48.75352 | 20.42867 | 39920 ft | 474 kts | 333° |
| 2026-05-05 18:40 | 48.81325 | 20.38771 | 39922 ft | 475 kts | 333° |
| 2026-05-05 18:41 | 48.87368 | 20.34542 | 39917 ft | 475 kts | 333° |
| 2026-05-05 18:41 | 48.93322 | 20.30348 | 39909 ft | 475 kts | 333° |
| 2026-05-05 18:42 | 48.99323 | 20.26111 | 39906 ft | 476 kts | 333° |
| 2026-05-05 18:42 | 49.05334 | 20.21860 | 39915 ft | 476 kts | 333° |
| 2026-05-05 18:43 | 49.11327 | 20.17611 | 39916 ft | 476 kts | 333° |
| 2026-05-05 18:43 | 49.17338 | 20.13337 | 39909 ft | 477 kts | 333° |
| 2026-05-05 18:44 | 49.23035 | 20.08263 | 39897 ft | 472 kts | 319° |
| 2026-05-05 18:44 | 49.27985 | 20.01710 | 39905 ft | 470 kts | 315° |
| 2026-05-05 18:45 | 49.32796 | 19.94934 | 39893 ft | 470 kts | 315° |
| 2026-05-05 18:45 | 49.37603 | 19.88095 | 39885 ft | 472 kts | 315° |
| 2026-05-05 18:46 | 49.42432 | 19.81236 | 39883 ft | 473 kts | 315° |
| 2026-05-05 18:46 | 49.47261 | 19.74384 | 39875 ft | 472 kts | 315° |
| 2026-05-05 18:47 | 49.52084 | 19.67521 | 39865 ft | 473 kts | 315° |
| 2026-05-05 18:47 | 49.56916 | 19.60628 | 39873 ft | 473 kts | 315° |
| 2026-05-05 18:48 | 49.61739 | 19.53729 | 39871 ft | 472 kts | 314° |
| 2026-05-05 18:48 | 49.66547 | 19.46821 | 39871 ft | 473 kts | 315° |
| 2026-05-05 18:49 | 49.71370 | 19.39889 | 39846 ft | 473 kts | 315° |
| 2026-05-05 18:49 | 49.76163 | 19.32964 | 39858 ft | 472 kts | 315° |
| 2026-05-05 18:50 | 49.80960 | 19.26016 | 39847 ft | 474 kts | 314° |
| 2026-05-05 18:50 | 49.85777 | 19.19027 | 39833 ft | 474 kts | 314° |
| 2026-05-05 18:51 | 49.90581 | 19.12038 | 39834 ft | 473 kts | 314° |
| 2026-05-05 18:51 | 49.95374 | 19.05041 | 39825 ft | 473 kts | 314° |
| 2026-05-05 18:52 | 50.00167 | 18.98023 | 39828 ft | 473 kts | 314° |
| 2026-05-05 18:52 | 50.04978 | 18.91006 | 39817 ft | 475 kts | 315° |
| 2026-05-05 18:53 | 50.09900 | 18.84234 | 39820 ft | 475 kts | 317° |
| 2026-05-05 18:53 | 50.14881 | 18.77461 | 39816 ft | 475 kts | 316° |
| 2026-05-05 18:54 | 50.19838 | 18.70642 | 39815 ft | 475 kts | 316° |
| 2026-05-05 18:54 | 50.24774 | 18.63789 | 39811 ft | 476 kts | 316° |
| 2026-05-05 18:55 | 50.29726 | 18.56885 | 39812 ft | 477 kts | 316° |
| 2026-05-05 18:55 | 50.34667 | 18.49983 | 39810 ft | 476 kts | 316° |
| 2026-05-05 18:56 | 50.39605 | 18.43073 | 39810 ft | 475 kts | 316° |
| 2026-05-05 18:56 | 50.44523 | 18.36170 | 39799 ft | 475 kts | 316° |
| 2026-05-05 18:57 | 50.49443 | 18.29244 | 39799 ft | 475 kts | 316° |
| 2026-05-05 18:57 | 50.54353 | 18.22318 | 39793 ft | 475 kts | 316° |
| 2026-05-05 18:58 | 50.59260 | 18.15359 | 39780 ft | 475 kts | 315° |
| 2026-05-05 18:58 | 50.64155 | 18.08376 | 39784 ft | 475 kts | 315° |
| 2026-05-05 18:59 | 50.69040 | 18.01393 | 39777 ft | 474 kts | 315° |
| 2026-05-05 18:59 | 50.73923 | 17.94398 | 39775 ft | 475 kts | 315° |
| 2026-05-05 19:00 | 50.78811 | 17.87385 | 39777 ft | 475 kts | 315° |
| 2026-05-05 19:00 | 50.83703 | 17.80354 | 39775 ft | 475 kts | 315° |
| 2026-05-05 19:01 | 50.88586 | 17.73302 | 39771 ft | 475 kts | 315° |
| 2026-05-05 19:01 | 50.93464 | 17.66250 | 39779 ft | 475 kts | 315° |
| 2026-05-05 19:02 | 50.98340 | 17.59176 | 39771 ft | 474 kts | 315° |
| 2026-05-05 19:02 | 51.03201 | 17.52092 | 39771 ft | 474 kts | 314° |
| 2026-05-05 19:03 | 51.08062 | 17.44991 | 39780 ft | 474 kts | 314° |
| 2026-05-05 19:03 | 51.12884 | 17.37929 | 39778 ft | 474 kts | 314° |
| 2026-05-05 19:04 | 51.17735 | 17.30810 | 39782 ft | 474 kts | 314° |
| 2026-05-05 19:04 | 51.22579 | 17.23674 | 39781 ft | 474 kts | 314° |
| 2026-05-05 19:05 | 51.27410 | 17.16514 | 39784 ft | 473 kts | 314° |
| 2026-05-05 19:05 | 51.31627 | 17.08565 | 39780 ft | 466 kts | 299° |
| 2026-05-05 19:06 | 51.34816 | 16.99567 | 39793 ft | 465 kts | 296° |
| 2026-05-05 19:06 | 51.37348 | 16.91915 | 39791 ft | 464 kts | 295° |
| 2026-05-05 19:07 | 51.40319 | 16.82818 | 39798 ft | 464 kts | 295° |
| 2026-05-05 19:07 | 51.43316 | 16.73654 | 39801 ft | 464 kts | 295° |
| 2026-05-05 19:08 | 51.46324 | 16.64506 | 39798 ft | 464 kts | 295° |
| 2026-05-05 19:08 | 51.49322 | 16.55338 | 39800 ft | 464 kts | 295° |
| 2026-05-05 19:09 | 51.52306 | 16.46171 | 39807 ft | 464 kts | 295° |
| 2026-05-05 19:09 | 51.55290 | 16.36977 | 39814 ft | 464 kts | 295° |
| 2026-05-05 19:10 | 51.56783 | 16.32366 | 39685 ft | 464 kts | 295° |
| 2026-05-05 19:10 | 51.58269 | 16.27770 | 39451 ft | 463 kts | 295° |
| 2026-05-05 19:10 | 51.59753 | 16.23171 | 39214 ft | 463 kts | 294° |
| 2026-05-05 19:10 | 51.61229 | 16.18587 | 38991 ft | 462 kts | 294° |
| 2026-05-05 19:11 | 51.62706 | 16.13994 | 38757 ft | 461 kts | 294° |
| 2026-05-05 19:11 | 51.64176 | 16.09427 | 38548 ft | 460 kts | 294° |
| 2026-05-05 19:11 | 51.65643 | 16.04858 | 38078 ft | 458 kts | 294° |
| 2026-05-05 19:11 | 51.67100 | 16.00302 | 37444 ft | 456 kts | 294° |
| 2026-05-05 19:12 | 51.68545 | 15.95771 | 36766 ft | 454 kts | 294° |
| 2026-05-05 19:12 | 51.69990 | 15.91236 | 36078 ft | 453 kts | 294° |
| 2026-05-05 19:12 | 51.71424 | 15.86729 | 35397 ft | 453 kts | 294° |
| 2026-05-05 19:12 | 51.72858 | 15.82192 | 34672 ft | 453 kts | 294° |
| 2026-05-05 19:13 | 51.74291 | 15.77643 | 33863 ft | 456 kts | 294° |
| 2026-05-05 19:13 | 51.75712 | 15.73126 | 32971 ft | 458 kts | 294° |
| 2026-05-05 19:13 | 51.77173 | 15.68476 | 32104 ft | 460 kts | 294° |
| 2026-05-05 19:13 | 51.78618 | 15.63870 | 31199 ft | 461 kts | 294° |
| 2026-05-05 19:14 | 51.80072 | 15.59232 | 30310 ft | 463 kts | 294° |
| 2026-05-05 19:14 | 51.81513 | 15.54628 | 29289 ft | 466 kts | 294° |
| 2026-05-05 19:14 | 51.82995 | 15.49887 | 28352 ft | 466 kts | 294° |
| 2026-05-05 19:14 | 51.84427 | 15.45304 | 27702 ft | 460 kts | 294° |
| 2026-05-05 19:15 | 51.85876 | 15.40658 | 27033 ft | 455 kts | 294° |
| 2026-05-05 19:15 | 51.87292 | 15.36109 | 26365 ft | 451 kts | 294° |
| 2026-05-05 19:15 | 51.88693 | 15.31595 | 25683 ft | 447 kts | 294° |
| 2026-05-05 19:15 | 51.90062 | 15.27172 | 25033 ft | 443 kts | 293° |
| 2026-05-05 19:16 | 51.91440 | 15.22721 | 24367 ft | 440 kts | 293° |
| 2026-05-05 19:16 | 51.92805 | 15.18306 | 23744 ft | 436 kts | 293° |
| 2026-05-05 19:16 | 51.94153 | 15.13922 | 23058 ft | 433 kts | 293° |
| 2026-05-05 19:16 | 51.95487 | 15.09570 | 22369 ft | 429 kts | 293° |
| 2026-05-05 19:17 | 51.96805 | 15.05266 | 21718 ft | 424 kts | 293° |
| 2026-05-05 19:17 | 51.98033 | 15.01246 | 21094 ft | 421 kts | 293° |
| 2026-05-05 19:17 | 51.98962 | 14.98204 | 20640 ft | 418 kts | 293° |
| 2026-05-05 19:17 | 52.00243 | 14.94007 | 20083 ft | 402 kts | 293° |
| 2026-05-05 19:18 | 52.01447 | 14.90076 | 19653 ft | 377 kts | 293° |
| 2026-05-05 19:18 | 52.02587 | 14.86346 | 19004 ft | 361 kts | 293° |
| 2026-05-05 19:18 | 52.03681 | 14.82750 | 18363 ft | 349 kts | 292° |
| 2026-05-05 19:18 | 52.04720 | 14.79168 | 17652 ft | 351 kts | 289° |
| 2026-05-05 19:19 | 52.05413 | 14.75402 | 17099 ft | 346 kts | 278° |
| 2026-05-05 19:19 | 52.05619 | 14.71555 | 16589 ft | 340 kts | 268° |
| 2026-05-05 19:19 | 52.05573 | 14.67778 | 15922 ft | 329 kts | 265° |
| 2026-05-05 19:19 | 52.05475 | 14.64085 | 15305 ft | 326 kts | 265° |
| 2026-05-05 19:20 | 52.05364 | 14.60399 | 14790 ft | 328 kts | 265° |
| 2026-05-05 19:20 | 52.05249 | 14.56707 | 14302 ft | 327 kts | 265° |
| 2026-05-05 19:20 | 52.05133 | 14.53030 | 13791 ft | 325 kts | 265° |
| 2026-05-05 19:20 | 52.05018 | 14.49420 | 13054 ft | 316 kts | 265° |
| 2026-05-05 19:21 | 52.04903 | 14.45871 | 12424 ft | 315 kts | 265° |
| 2026-05-05 19:21 | 52.04815 | 14.42322 | 11859 ft | 314 kts | 268° |
| 2026-05-05 19:21 | 52.04956 | 14.38779 | 11586 ft | 317 kts | 274° |
| 2026-05-05 19:21 | 52.05191 | 14.35218 | 11516 ft | 315 kts | 274° |
| 2026-05-05 19:22 | 52.05431 | 14.31696 | 11407 ft | 313 kts | 274° |
| 2026-05-05 19:22 | 52.05668 | 14.28178 | 11078 ft | 313 kts | 274° |
| 2026-05-05 19:22 | 52.05902 | 14.24674 | 10628 ft | 312 kts | 274° |
| 2026-05-05 19:22 | 52.06134 | 14.21183 | 10222 ft | 309 kts | 274° |
| 2026-05-05 19:23 | 52.06362 | 14.17723 | 9975 ft | 308 kts | 274° |
| 2026-05-05 19:23 | 52.06590 | 14.14261 | 9735 ft | 308 kts | 274° |
| 2026-05-05 19:23 | 52.06815 | 14.10810 | 9476 ft | 307 kts | 274° |
| 2026-05-05 19:23 | 52.07036 | 14.07407 | 9217 ft | 306 kts | 274° |
| 2026-05-05 19:24 | 52.07261 | 14.03929 | 8947 ft | 305 kts | 274° |
| 2026-05-05 19:24 | 52.07479 | 14.00553 | 8692 ft | 304 kts | 274° |
| 2026-05-05 19:24 | 52.07698 | 13.97137 | 8414 ft | 304 kts | 274° |
| 2026-05-05 19:24 | 52.07915 | 13.93730 | 8110 ft | 303 kts | 274° |
| 2026-05-05 19:25 | 52.08131 | 13.90332 | 7813 ft | 302 kts | 274° |
| 2026-05-05 19:25 | 52.08345 | 13.86949 | 7509 ft | 300 kts | 274° |
| 2026-05-05 19:25 | 52.08557 | 13.83569 | 7226 ft | 300 kts | 275° |
| 2026-05-05 19:25 | 52.08768 | 13.80202 | 6951 ft | 299 kts | 274° |
| 2026-05-05 19:26 | 52.08977 | 13.76845 | 6823 ft | 299 kts | 275° |
| 2026-05-05 19:26 | 52.09186 | 13.73479 | 6813 ft | 299 kts | 275° |
| 2026-05-05 19:26 | 52.09394 | 13.70119 | 6817 ft | 299 kts | 275° |
| 2026-05-05 19:26 | 52.09601 | 13.66762 | 6815 ft | 298 kts | 274° |
| 2026-05-05 19:27 | 52.09807 | 13.63401 | 6820 ft | 299 kts | 274° |
| 2026-05-05 19:27 | 52.10033 | 13.60042 | 6825 ft | 299 kts | 275° |
| 2026-05-05 19:27 | 52.10294 | 13.56698 | 6818 ft | 298 kts | 276° |
| 2026-05-05 19:27 | 52.10557 | 13.53350 | 6818 ft | 299 kts | 276° |
| 2026-05-05 19:28 | 52.10817 | 13.49999 | 6821 ft | 299 kts | 276° |
| 2026-05-05 19:28 | 52.11073 | 13.46646 | 6818 ft | 299 kts | 276° |
| 2026-05-05 19:28 | 52.11328 | 13.43286 | 6764 ft | 299 kts | 276° |
| 2026-05-05 19:28 | 52.11578 | 13.39965 | 6322 ft | 295 kts | 276° |
| 2026-05-05 19:29 | 52.11839 | 13.36646 | 5733 ft | 296 kts | 278° |
| 2026-05-05 19:29 | 52.12552 | 13.33520 | 5157 ft | 296 kts | 303° |
| 2026-05-05 19:29 | 52.13645 | 13.30703 | 4880 ft | 294 kts | 297° |
| 2026-05-05 19:29 | 52.14133 | 13.27480 | 4825 ft | 295 kts | 271° |
| 2026-05-05 19:30 | 52.13806 | 13.24199 | 4825 ft | 295 kts | 252° |
| 2026-05-05 19:30 | 52.13144 | 13.21020 | 4820 ft | 297 kts | 248° |
| 2026-05-05 19:30 | 52.12334 | 13.17945 | 4813 ft | 296 kts | 245° |
| 2026-05-05 19:30 | 52.11486 | 13.14893 | 4906 ft | 296 kts | 246° |
| 2026-05-05 19:31 | 52.11042 | 13.11721 | 4975 ft | 280 kts | 270° |
| 2026-05-05 19:31 | 52.11452 | 13.08758 | 4913 ft | 263 kts | 297° |
| 2026-05-05 19:31 | 52.12593 | 13.06567 | 4757 ft | 250 kts | 327° |
| 2026-05-05 19:31 | 52.14124 | 13.05394 | 4556 ft | 240 kts | 342° |
| 2026-05-05 19:32 | 52.15687 | 13.04587 | 4256 ft | 237 kts | 344° |
| 2026-05-05 19:32 | 52.17283 | 13.03798 | 3924 ft | 236 kts | 344° |
| 2026-05-05 19:32 | 52.18826 | 13.03034 | 3632 ft | 234 kts | 346° |
| 2026-05-05 19:32 | 52.20423 | 13.02514 | 3284 ft | 230 kts | 4° |
| 2026-05-05 19:33 | 52.21906 | 13.03214 | 3102 ft | 217 kts | 30° |
| 2026-05-05 19:33 | 52.23168 | 13.04442 | 2988 ft | 206 kts | 34° |
| 2026-05-05 19:33 | 52.24311 | 13.05812 | 3009 ft | 203 kts | 48° |
| 2026-05-05 19:33 | 52.25105 | 13.07681 | 3010 ft | 201 kts | 63° |
| 2026-05-05 19:34 | 52.25666 | 13.09744 | 2989 ft | 202 kts | 68° |
| 2026-05-05 19:34 | 52.26205 | 13.11905 | 2992 ft | 202 kts | 68° |
| 2026-05-05 19:34 | 52.26718 | 13.14030 | 2989 ft | 202 kts | 69° |
| 2026-05-05 19:35 | 52.27740 | 13.18298 | 2984 ft | 202 kts | 69° |
| 2026-05-05 19:35 | 52.28235 | 13.20356 | 2998 ft | 190 kts | 69° |
| 2026-05-05 19:35 | 52.28704 | 13.22314 | 3010 ft | 182 kts | 69° |
| 2026-05-05 19:35 | 52.29167 | 13.24250 | 2994 ft | 180 kts | 69° |
| 2026-05-05 19:36 | 52.29615 | 13.26136 | 2868 ft | 181 kts | 69° |
| 2026-05-05 19:36 | 52.30072 | 13.28059 | 2610 ft | 181 kts | 69° |
| 2026-05-05 19:36 | 52.30524 | 13.29960 | 2381 ft | 178 kts | 69° |
| 2026-05-05 19:36 | 52.30964 | 13.31805 | 2140 ft | 171 kts | 69° |
| 2026-05-05 19:37 | 52.31377 | 13.33545 | 1900 ft | 156 kts | 68° |
| 2026-05-05 19:37 | 52.31750 | 13.35113 | 1714 ft | 142 kts | 68° |
| 2026-05-05 19:37 | 52.32093 | 13.36552 | 1522 ft | 130 kts | 68° |
| 2026-05-05 19:37 | 52.32410 | 13.37888 | 1358 ft | 123 kts | 67° |
| 2026-05-05 19:38 | 52.32721 | 13.39191 | 1178 ft | 123 kts | 68° |
| 2026-05-05 19:38 | 52.33029 | 13.40490 | 1027 ft | 123 kts | 68° |
| 2026-05-05 19:38 | 52.33341 | 13.41796 | 844 ft | 124 kts | 68° |
| 2026-05-05 19:38 | 52.33647 | 13.43129 | 717 ft | 127 kts | 66° |
| 2026-05-05 19:39 | 52.33972 | 13.44455 | 516 ft | 125 kts | 65° |
| 2026-05-05 19:39 | 52.34285 | 13.45765 | 364 ft | 123 kts | 66° |
| 2026-05-05 19:39 | 52.34602 | 13.47077 | 216 ft | 125 kts | 65° |
| 2026-05-05 19:39 | 52.34895 | 13.48324 | 161 ft | 101 kts | 68° |
| 2026-05-05 19:40 | 52.35043 | 13.48962 | 161 ft | 17 kts | 70° |
| 2026-05-05 19:40 | 52.35094 | 13.49155 | 161 ft | 27 kts | 64° |
| 2026-05-05 19:40 | 52.35151 | 13.49281 | 161 ft | 9 kts | 30° |
| 2026-05-05 19:40 | 52.35217 | 13.49344 | 161 ft | 11 kts | 34° |
| 2026-05-05 19:41 | 52.35270 | 13.49408 | 161 ft | 11 kts | 36° |
| 2026-05-05 19:41 | 52.35339 | 13.49490 | 161 ft | 14 kts | 36° |
| 2026-05-05 19:41 | 52.35414 | 13.49608 | 161 ft | 16 kts | 49° |
| 2026-05-05 19:41 | 52.35473 | 13.49775 | 161 ft | 18 kts | 66° |
| 2026-05-05 19:42 | 52.35513 | 13.49935 | 161 ft | 11 kts | 65° |
| 2026-05-05 19:42 | 52.35546 | 13.50067 | 161 ft | 14 kts | 69° |
| 2026-05-05 19:42 | 52.35583 | 13.50233 | 161 ft | 17 kts | 74° |
| 2026-05-05 19:42 | 52.35628 | 13.50423 | 161 ft | 19 kts | 69° |
| 2026-05-05 19:43 | 52.35678 | 13.50636 | 161 ft | 19 kts | 67° |
| 2026-05-05 19:43 | 52.35729 | 13.50818 | 161 ft | 12 kts | 50° |
| 2026-05-05 19:43 | 52.35788 | 13.50824 | 161 ft | 9 kts | 330° |
| 2026-05-05 19:43 | 52.35856 | 13.50772 | 161 ft | 13 kts | 338° |
| 2026-05-05 19:44 | 52.35949 | 13.50710 | 161 ft | 16 kts | 338° |
| 2026-05-05 19:44 | 52.36061 | 13.50644 | 161 ft | 18 kts | 340° |
| 2026-05-05 19:44 | 52.36177 | 13.50575 | 161 ft | 9 kts | 347° |
| 2026-05-05 19:44 | 52.36206 | 13.50598 | 161 ft | 1 kts | 47° |
| 2026-05-05 19:45 | 52.36211 | 13.50619 | 161 ft | 2 kts | 73° |
| 2026-05-05 19:45 | 52.36216 | 13.50637 | 161 ft | 2 kts | 63° |
| 2026-05-05 19:45 | 52.36224 | 13.50652 | 161 ft | 0 kts | 50° |
| 2026-05-05 19:45 | 52.36225 | 13.50656 | 161 ft | 4 kts | 57° |
| 2026-05-05 19:46 | 52.36231 | 13.50681 | 161 ft | 0 kts | 67° |
| 2026-05-05 19:46 | 52.36233 | 13.50690 | 161 ft | 1 kts | 66° |
| 2026-05-05 19:46 | 52.36235 | 13.50698 | 161 ft | 2 kts | 67° |